sensor_id;sensor_type;location;lat;lon;timestamp;temperature;humidity
33903;DHT22;20194;50.950;5.346;2022-12-18T00:02:05;-1.40;1.00
33903;DHT22;20194;50.950;5.346;2022-12-18T00:04:31;-1.50;1.00
33903;DHT22;20194;50.950;5.346;2022-12-18T00:06:56;-1.50;1.00
33903;DHT22;20194;50.950;5.346;2022-12-18T00:09:22;-1.50;1.00
33903;DHT22;20194;50.950;5.346;2022-12-18T00:11:48;-1.60;1.00
33903;DHT22;20194;50.950;5.346;2022-12-18T00:14:14;-1.70;1.00
33903;DHT22;20194;50.950;5.346;2022-12-18T00:16:43;-1.80;1.00
33903;DHT22;20194;50.950;5.346;2022-12-18T00:19:09;-1.90;1.00
33903;DHT22;20194;50.950;5.346;2022-12-18T00:21:35;-2.10;1.00
33903;DHT22;20194;50.950;5.346;2022-12-18T00:24:01;-2.10;1.00
33903;DHT22;20194;50.950;5.346;2022-12-18T00:26:31;-2.20;1.00
33903;DHT22;20194;50.950;5.346;2022-12-18T00:29:11;-2.10;1.00
33903;DHT22;20194;50.950;5.346;2022-12-18T00:31:39;-2.00;1.00
33903;DHT22;20194;50.950;5.346;2022-12-18T00:34:05;-2.00;1.00
33903;DHT22;20194;50.950;5.346;2022-12-18T00:36:33;-1.80;1.00
33903;DHT22;20194;50.950;5.346;2022-12-18T00:39:00;-1.70;1.00
33903;DHT22;20194;50.950;5.346;2022-12-18T00:41:27;-1.60;1.00
33903;DHT22;20194;50.950;5.346;2022-12-18T00:44:13;-1.60;1.00
33903;DHT22;20194;50.950;5.346;2022-12-18T00:46:40;-1.70;1.00
33903;DHT22;20194;50.950;5.346;2022-12-18T00:49:05;-1.80;1.00
33903;DHT22;20194;50.950;5.346;2022-12-18T00:51:31;-2.10;1.00
33903;DHT22;20194;50.950;5.346;2022-12-18T00:53:57;-2.30;1.00
33903;DHT22;20194;50.950;5.346;2022-12-18T00:56:23;-2.40;1.00
33903;DHT22;20194;50.950;5.346;2022-12-18T00:58:49;-2.40;3.60
33903;DHT22;20194;50.950;5.346;2022-12-18T01:01:16;-2.50;3.80
33903;DHT22;20194;50.950;5.346;2022-12-18T01:03:41;-2.60;4.40
33903;DHT22;20194;50.950;5.346;2022-12-18T01:06:09;-2.60;8.00
33903;DHT22;20194;50.950;5.346;2022-12-18T01:08:36;-2.60;6.20
33903;DHT22;20194;50.950;5.346;2022-12-18T01:11:11;-2.40;3.90
33903;DHT22;20194;50.950;5.346;2022-12-18T01:13:37;-2.20;1.00
33903;DHT22;20194;50.950;5.346;2022-12-18T01:16:03;-2.10;1.00
33903;DHT22;20194;50.950;5.346;2022-12-18T01:18:29;-2.00;1.00
33903;DHT22;20194;50.950;5.346;2022-12-18T01:20:55;-2.00;1.00
33903;DHT22;20194;50.950;5.346;2022-12-18T01:23:20;-2.10;1.00
33903;DHT22;20194;50.950;5.346;2022-12-18T01:25:46;-2.20;1.00
33903;DHT22;20194;50.950;5.346;2022-12-18T01:28:12;-2.10;1.00
33903;DHT22;20194;50.950;5.346;2022-12-18T01:30:38;-2.00;1.00
33903;DHT22;20194;50.950;5.346;2022-12-18T01:33:06;-1.90;1.00
33903;DHT22;20194;50.950;5.346;2022-12-18T01:35:32;-1.80;1.00
33903;DHT22;20194;50.950;5.346;2022-12-18T01:37:58;-1.90;1.00
33903;DHT22;20194;50.950;5.346;2022-12-18T01:40:23;-1.90;1.00
33903;DHT22;20194;50.950;5.346;2022-12-18T01:42:51;-1.90;1.00
33903;DHT22;20194;50.950;5.346;2022-12-18T01:45:26;-2.00;1.00
33903;DHT22;20194;50.950;5.346;2022-12-18T01:48:11;-2.00;1.00
33903;DHT22;20194;50.950;5.346;2022-12-18T01:50:39;-2.00;1.00
33903;DHT22;20194;50.950;5.346;2022-12-18T01:53:15;-2.00;1.00
33903;DHT22;20194;50.950;5.346;2022-12-18T01:55:53;-1.90;1.00
33903;DHT22;20194;50.950;5.346;2022-12-18T01:58:27;-2.00;1.00
33903;DHT22;20194;50.950;5.346;2022-12-18T02:00:55;-2.10;1.00
33903;DHT22;20194;50.950;5.346;2022-12-18T02:03:21;-2.10;1.00
33903;DHT22;20194;50.950;5.346;2022-12-18T02:09:11;-1.90;1.00
33903;DHT22;20194;50.950;5.346;2022-12-18T02:17:01;-2.00;1.00
33903;DHT22;20194;50.950;5.346;2022-12-18T02:27:41;-2.00;1.00
33903;DHT22;20194;50.950;5.346;2022-12-18T02:30:10;-2.10;1.00
33903;DHT22;20194;50.950;5.346;2022-12-18T02:32:43;-2.20;1.00
33903;DHT22;20194;50.950;5.346;2022-12-18T02:35:22;-2.30;1.00
33903;DHT22;20194;50.950;5.346;2022-12-18T02:37:49;-2.30;1.00
33903;DHT22;20194;50.950;5.346;2022-12-18T02:40:17;-2.20;1.00
33903;DHT22;20194;50.950;5.346;2022-12-18T02:42:44;-2.30;1.00
33903;DHT22;20194;50.950;5.346;2022-12-18T02:45:10;-2.30;1.00
33903;DHT22;20194;50.950;5.346;2022-12-18T02:47:41;-2.40;1.00
33903;DHT22;20194;50.950;5.346;2022-12-18T02:50:22;-2.30;1.00
33903;DHT22;20194;50.950;5.346;2022-12-18T02:53:26;-2.30;1.00
33903;DHT22;20194;50.950;5.346;2022-12-18T02:56:05;-2.40;1.00
33903;DHT22;20194;50.950;5.346;2022-12-18T02:58:40;-2.40;1.00
33903;DHT22;20194;50.950;5.346;2022-12-18T03:01:21;-2.50;1.00
33903;DHT22;20194;50.950;5.346;2022-12-18T03:04:01;-2.70;1.00
33903;DHT22;20194;50.950;5.346;2022-12-18T03:06:31;-3.10;1.00
33903;DHT22;20194;50.950;5.346;2022-12-18T03:09:04;-3.20;1.00
33903;DHT22;20194;50.950;5.346;2022-12-18T03:11:34;-3.30;1.00
33903;DHT22;20194;50.950;5.346;2022-12-18T03:14:23;-3.10;1.00
33903;DHT22;20194;50.950;5.346;2022-12-18T03:16:53;-3.00;1.00
33903;DHT22;20194;50.950;5.346;2022-12-18T03:19:22;-2.80;1.00
33903;DHT22;20194;50.950;5.346;2022-12-18T03:21:53;-2.80;1.00
33903;DHT22;20194;50.950;5.346;2022-12-18T03:24:21;-2.70;1.00
33903;DHT22;20194;50.950;5.346;2022-12-18T03:26:51;-2.70;1.00
33903;DHT22;20194;50.950;5.346;2022-12-18T03:29:22;-2.70;1.00
33903;DHT22;20194;50.950;5.346;2022-12-18T03:32:10;-2.70;1.00
33903;DHT22;20194;50.950;5.346;2022-12-18T03:34:39;-2.70;1.00
33903;DHT22;20194;50.950;5.346;2022-12-18T03:37:06;-2.70;1.00
33903;DHT22;20194;50.950;5.346;2022-12-18T03:39:33;-2.80;1.00
33903;DHT22;20194;50.950;5.346;2022-12-18T03:45:05;-2.80;1.00
33903;DHT22;20194;50.950;5.346;2022-12-18T03:48:05;-2.80;1.00
33903;DHT22;20194;50.950;5.346;2022-12-18T03:55:49;-3.00;1.00
33903;DHT22;20194;50.950;5.346;2022-12-18T03:58:20;-2.90;1.00
33903;DHT22;20194;50.950;5.346;2022-12-18T04:00:48;-2.90;1.00
33903;DHT22;20194;50.950;5.346;2022-12-18T04:03:16;-2.90;1.00
33903;DHT22;20194;50.950;5.346;2022-12-18T04:05:43;-2.90;1.00
33903;DHT22;20194;50.950;5.346;2022-12-18T04:08:09;-3.00;1.00
33903;DHT22;20194;50.950;5.346;2022-12-18T04:10:35;-2.90;1.00
33903;DHT22;20194;50.950;5.346;2022-12-18T04:13:01;-3.00;1.00
33903;DHT22;20194;50.950;5.346;2022-12-18T04:15:27;-2.90;1.00
33903;DHT22;20194;50.950;5.346;2022-12-18T04:17:52;-2.90;1.00
33903;DHT22;20194;50.950;5.346;2022-12-18T04:20:18;-3.00;1.00
33903;DHT22;20194;50.950;5.346;2022-12-18T04:22:43;-3.00;1.00
33903;DHT22;20194;50.950;5.346;2022-12-18T04:25:12;-3.00;1.00
33903;DHT22;20194;50.950;5.346;2022-12-18T04:27:38;-3.10;1.00
33903;DHT22;20194;50.950;5.346;2022-12-18T04:30:05;-3.20;1.00
33903;DHT22;20194;50.950;5.346;2022-12-18T04:32:32;-3.20;1.00
33903;DHT22;20194;50.950;5.346;2022-12-18T04:34:58;-3.10;1.00
33903;DHT22;20194;50.950;5.346;2022-12-18T04:37:24;-3.30;1.00
33903;DHT22;20194;50.950;5.346;2022-12-18T04:39:49;-3.20;1.00
33903;DHT22;20194;50.950;5.346;2022-12-18T04:42:15;-3.30;1.00
33903;DHT22;20194;50.950;5.346;2022-12-18T04:44:41;-3.30;1.00
33903;DHT22;20194;50.950;5.346;2022-12-18T04:47:06;-3.20;1.00
33903;DHT22;20194;50.950;5.346;2022-12-18T04:49:33;-3.20;1.00
33903;DHT22;20194;50.950;5.346;2022-12-18T04:51:58;-3.20;1.00
33903;DHT22;20194;50.950;5.346;2022-12-18T04:54:24;-3.30;1.00
33903;DHT22;20194;50.950;5.346;2022-12-18T04:56:50;-3.40;1.00
33903;DHT22;20194;50.950;5.346;2022-12-18T04:59:16;-3.50;1.00
33903;DHT22;20194;50.950;5.346;2022-12-18T05:01:42;-3.50;1.00
33903;DHT22;20194;50.950;5.346;2022-12-18T05:04:07;-3.50;1.00
33903;DHT22;20194;50.950;5.346;2022-12-18T05:06:33;-3.50;1.00
33903;DHT22;20194;50.950;5.346;2022-12-18T05:08:59;-3.50;1.00
33903;DHT22;20194;50.950;5.346;2022-12-18T05:11:25;-3.40;1.00
33903;DHT22;20194;50.950;5.346;2022-12-18T05:13:51;-3.50;1.00
33903;DHT22;20194;50.950;5.346;2022-12-18T05:16:16;-3.50;1.00
33903;DHT22;20194;50.950;5.346;2022-12-18T05:18:42;-3.40;1.00
33903;DHT22;20194;50.950;5.346;2022-12-18T05:21:08;-3.30;1.00
33903;DHT22;20194;50.950;5.346;2022-12-18T05:23:33;-3.50;1.00
33903;DHT22;20194;50.950;5.346;2022-12-18T05:26:01;-3.50;1.00
33903;DHT22;20194;50.950;5.346;2022-12-18T05:28:29;-3.40;1.00
33903;DHT22;20194;50.950;5.346;2022-12-18T05:30:58;-3.50;1.00
33903;DHT22;20194;50.950;5.346;2022-12-18T05:33:27;-3.50;1.00
33903;DHT22;20194;50.950;5.346;2022-12-18T05:35:55;-3.50;1.00
33903;DHT22;20194;50.950;5.346;2022-12-18T05:38:22;-3.50;1.00
33903;DHT22;20194;50.950;5.346;2022-12-18T05:40:49;-3.80;1.00
33903;DHT22;20194;50.950;5.346;2022-12-18T05:43:15;-3.70;1.00
33903;DHT22;20194;50.950;5.346;2022-12-18T05:45:41;-3.80;1.00
33903;DHT22;20194;50.950;5.346;2022-12-18T05:48:12;-3.70;1.00
33903;DHT22;20194;50.950;5.346;2022-12-18T05:50:39;-3.70;1.00
33903;DHT22;20194;50.950;5.346;2022-12-18T05:53:05;-3.80;1.00
33903;DHT22;20194;50.950;5.346;2022-12-18T05:55:36;-3.80;1.00
33903;DHT22;20194;50.950;5.346;2022-12-18T05:58:03;-3.80;1.00
33903;DHT22;20194;50.950;5.346;2022-12-18T06:00:30;-3.70;1.00
33903;DHT22;20194;50.950;5.346;2022-12-18T06:02:55;-4.00;1.00
33903;DHT22;20194;50.950;5.346;2022-12-18T06:05:21;-4.00;1.00
33903;DHT22;20194;50.950;5.346;2022-12-18T06:07:47;-4.00;1.00
33903;DHT22;20194;50.950;5.346;2022-12-18T06:10:12;-4.10;1.00
33903;DHT22;20194;50.950;5.346;2022-12-18T06:12:38;-4.20;1.00
33903;DHT22;20194;50.950;5.346;2022-12-18T06:15:04;-4.10;1.00
33903;DHT22;20194;50.950;5.346;2022-12-18T06:17:31;-4.00;1.00
33903;DHT22;20194;50.950;5.346;2022-12-18T06:19:57;-3.80;1.00
33903;DHT22;20194;50.950;5.346;2022-12-18T06:22:22;-3.80;1.00
33903;DHT22;20194;50.950;5.346;2022-12-18T06:24:48;-3.80;1.00
33903;DHT22;20194;50.950;5.346;2022-12-18T06:27:14;-3.70;1.00
33903;DHT22;20194;50.950;5.346;2022-12-18T06:29:40;-3.80;1.00
33903;DHT22;20194;50.950;5.346;2022-12-18T06:32:06;-3.70;1.00
33903;DHT22;20194;50.950;5.346;2022-12-18T06:34:32;-3.60;1.00
33903;DHT22;20194;50.950;5.346;2022-12-18T06:36:58;-3.50;1.00
33903;DHT22;20194;50.950;5.346;2022-12-18T06:39:24;-3.60;1.00
33903;DHT22;20194;50.950;5.346;2022-12-18T06:41:50;-3.60;1.00
33903;DHT22;20194;50.950;5.346;2022-12-18T06:44:16;-3.60;1.00
33903;DHT22;20194;50.950;5.346;2022-12-18T06:46:41;-3.50;1.00
33903;DHT22;20194;50.950;5.346;2022-12-18T06:49:07;-3.40;1.00
33903;DHT22;20194;50.950;5.346;2022-12-18T06:51:34;-3.40;1.00
33903;DHT22;20194;50.950;5.346;2022-12-18T06:54:00;-3.50;1.00
33903;DHT22;20194;50.950;5.346;2022-12-18T06:56:26;-3.40;1.00
33903;DHT22;20194;50.950;5.346;2022-12-18T06:58:51;-3.30;1.00
33903;DHT22;20194;50.950;5.346;2022-12-18T07:01:17;-3.20;1.00
33903;DHT22;20194;50.950;5.346;2022-12-18T07:03:43;-3.20;1.00
33903;DHT22;20194;50.950;5.346;2022-12-18T07:06:19;-3.20;1.00
33903;DHT22;20194;50.950;5.346;2022-12-18T07:08:47;-3.40;1.00
33903;DHT22;20194;50.950;5.346;2022-12-18T07:11:13;-3.30;1.00
33903;DHT22;20194;50.950;5.346;2022-12-18T07:13:39;-3.30;1.00
33903;DHT22;20194;50.950;5.346;2022-12-18T07:16:13;-3.50;1.00
33903;DHT22;20194;50.950;5.346;2022-12-18T07:18:39;-3.70;1.00
33903;DHT22;20194;50.950;5.346;2022-12-18T07:21:07;-3.80;1.00
33903;DHT22;20194;50.950;5.346;2022-12-18T07:23:35;-3.80;1.00
33903;DHT22;20194;50.950;5.346;2022-12-18T07:26:03;-3.70;1.00
33903;DHT22;20194;50.950;5.346;2022-12-18T07:28:28;-3.70;1.00
33903;DHT22;20194;50.950;5.346;2022-12-18T07:30:54;-3.70;1.00
33903;DHT22;20194;50.950;5.346;2022-12-18T07:33:20;-3.70;1.00
33903;DHT22;20194;50.950;5.346;2022-12-18T07:35:45;-3.60;1.00
33903;DHT22;20194;50.950;5.346;2022-12-18T07:38:11;-3.50;1.00
33903;DHT22;20194;50.950;5.346;2022-12-18T07:40:37;-3.40;1.00
33903;DHT22;20194;50.950;5.346;2022-12-18T07:43:02;-3.50;1.00
33903;DHT22;20194;50.950;5.346;2022-12-18T07:45:28;-3.40;1.00
33903;DHT22;20194;50.950;5.346;2022-12-18T07:47:53;-3.40;1.00
33903;DHT22;20194;50.950;5.346;2022-12-18T07:50:20;-3.60;1.00
33903;DHT22;20194;50.950;5.346;2022-12-18T07:52:45;-3.60;1.00
33903;DHT22;20194;50.950;5.346;2022-12-18T07:55:12;-3.70;1.00
33903;DHT22;20194;50.950;5.346;2022-12-18T07:57:37;-3.80;1.00
33903;DHT22;20194;50.950;5.346;2022-12-18T08:00:04;-3.60;1.00
33903;DHT22;20194;50.950;5.346;2022-12-18T08:02:32;-3.60;1.00
33903;DHT22;20194;50.950;5.346;2022-12-18T08:04:58;-3.50;1.00
33903;DHT22;20194;50.950;5.346;2022-12-18T08:07:24;-3.40;1.00
33903;DHT22;20194;50.950;5.346;2022-12-18T08:09:49;-3.30;1.00
33903;DHT22;20194;50.950;5.346;2022-12-18T08:12:15;-3.10;1.00
33903;DHT22;20194;50.950;5.346;2022-12-18T08:14:41;-3.00;1.00
33903;DHT22;20194;50.950;5.346;2022-12-18T08:17:06;-3.00;1.00
33903;DHT22;20194;50.950;5.346;2022-12-18T08:19:32;-2.90;1.00
33903;DHT22;20194;50.950;5.346;2022-12-18T08:21:57;-2.90;1.00
33903;DHT22;20194;50.950;5.346;2022-12-18T08:24:23;-3.00;1.00
33903;DHT22;20194;50.950;5.346;2022-12-18T08:26:49;-2.90;1.00
33903;DHT22;20194;50.950;5.346;2022-12-18T08:29:15;-2.90;1.00
33903;DHT22;20194;50.950;5.346;2022-12-18T08:31:41;-3.10;1.00
33903;DHT22;20194;50.950;5.346;2022-12-18T08:34:08;-3.00;1.00
33903;DHT22;20194;50.950;5.346;2022-12-18T08:36:33;-3.20;1.00
33903;DHT22;20194;50.950;5.346;2022-12-18T08:38:59;-3.20;1.00
33903;DHT22;20194;50.950;5.346;2022-12-18T08:41:25;-3.30;1.00
33903;DHT22;20194;50.950;5.346;2022-12-18T08:43:50;-3.30;1.00
33903;DHT22;20194;50.950;5.346;2022-12-18T08:46:40;-3.40;1.00
33903;DHT22;20194;50.950;5.346;2022-12-18T08:49:08;-3.30;2.00
33903;DHT22;20194;50.950;5.346;2022-12-18T08:51:34;-3.30;4.00
33903;DHT22;20194;50.950;5.346;2022-12-18T08:54:01;-3.20;2.70
33903;DHT22;20194;50.950;5.346;2022-12-18T08:56:27;-3.00;2.10
33903;DHT22;20194;50.950;5.346;2022-12-18T08:58:53;-2.90;1.00
33903;DHT22;20194;50.950;5.346;2022-12-18T09:01:20;-2.80;1.00
33903;DHT22;20194;50.950;5.346;2022-12-18T09:03:45;-2.70;1.00
33903;DHT22;20194;50.950;5.346;2022-12-18T09:06:14;-2.70;1.00
33903;DHT22;20194;50.950;5.346;2022-12-18T09:08:41;-2.70;1.00
33903;DHT22;20194;50.950;5.346;2022-12-18T09:11:33;-2.60;1.00
33903;DHT22;20194;50.950;5.346;2022-12-18T09:14:00;-2.60;1.90
33903;DHT22;20194;50.950;5.346;2022-12-18T09:16:27;-2.60;4.10
33903;DHT22;20194;50.950;5.346;2022-12-18T09:18:55;-2.60;3.30
33903;DHT22;20194;50.950;5.346;2022-12-18T09:21:25;-2.70;7.50
33903;DHT22;20194;50.950;5.346;2022-12-18T09:23:52;-2.70;10.30
33903;DHT22;20194;50.950;5.346;2022-12-18T09:26:19;-2.60;11.90
33903;DHT22;20194;50.950;5.346;2022-12-18T09:28:44;-2.50;10.00
33903;DHT22;20194;50.950;5.346;2022-12-18T09:31:11;-2.40;9.80
33903;DHT22;20194;50.950;5.346;2022-12-18T09:33:40;-2.40;9.90
33903;DHT22;20194;50.950;5.346;2022-12-18T09:36:08;-2.30;9.10
33903;DHT22;20194;50.950;5.346;2022-12-18T09:38:35;-2.40;9.00
33903;DHT22;20194;50.950;5.346;2022-12-18T09:41:30;-2.30;10.70
33903;DHT22;20194;50.950;5.346;2022-12-18T09:44:03;-2.20;10.30
33903;DHT22;20194;50.950;5.346;2022-12-18T09:46:33;-2.30;12.90
33903;DHT22;20194;50.950;5.346;2022-12-18T09:49:02;-2.30;15.60
33903;DHT22;20194;50.950;5.346;2022-12-18T09:51:36;-2.10;14.60
33903;DHT22;20194;50.950;5.346;2022-12-18T09:54:36;-1.80;12.40
33903;DHT22;20194;50.950;5.346;2022-12-18T09:57:01;-1.50;8.40
33903;DHT22;20194;50.950;5.346;2022-12-18T09:59:29;-1.30;4.70
33903;DHT22;20194;50.950;5.346;2022-12-18T10:01:56;-1.30;3.70
33903;DHT22;20194;50.950;5.346;2022-12-18T10:04:22;-1.10;2.80
33903;DHT22;20194;50.950;5.346;2022-12-18T10:06:58;-0.90;1.00
33903;DHT22;20194;50.950;5.346;2022-12-18T10:09:45;-0.80;1.00
33903;DHT22;20194;50.950;5.346;2022-12-18T10:12:25;-0.80;1.00
33903;DHT22;20194;50.950;5.346;2022-12-18T10:15:07;-1.00;1.00
33903;DHT22;20194;50.950;5.346;2022-12-18T10:17:58;-1.20;6.70
33903;DHT22;20194;50.950;5.346;2022-12-18T10:20:51;-1.10;6.00
33903;DHT22;20194;50.950;5.346;2022-12-18T10:23:22;-0.90;3.80
33903;DHT22;20194;50.950;5.346;2022-12-18T10:26:06;-0.70;2.70
33903;DHT22;20194;50.950;5.346;2022-12-18T10:28:36;-0.50;1.80
33903;DHT22;20194;50.950;5.346;2022-12-18T10:31:02;-0.40;1.10
33903;DHT22;20194;50.950;5.346;2022-12-18T10:33:32;-0.30;1.00
33903;DHT22;20194;50.950;5.346;2022-12-18T10:35:59;-0.40;1.00
33903;DHT22;20194;50.950;5.346;2022-12-18T10:38:30;-0.40;1.00
33903;DHT22;20194;50.950;5.346;2022-12-18T10:41:24;-0.40;3.50
33903;DHT22;20194;50.950;5.346;2022-12-18T10:44:14;-0.40;4.10
33903;DHT22;20194;50.950;5.346;2022-12-18T10:46:40;-0.30;6.30
33903;DHT22;20194;50.950;5.346;2022-12-18T10:49:19;-0.40;7.10
33903;DHT22;20194;50.950;5.346;2022-12-18T10:51:46;-0.50;9.00
33903;DHT22;20194;50.950;5.346;2022-12-18T10:54:31;-0.60;15.00
33903;DHT22;20194;50.950;5.346;2022-12-18T10:57:56;-0.70;19.70
33903;DHT22;20194;50.950;5.346;2022-12-18T11:00:28;-1.00;21.00
33903;DHT22;20194;50.950;5.346;2022-12-18T11:02:55;-1.00;26.70
33903;DHT22;20194;50.950;5.346;2022-12-18T11:05:31;-1.20;28.00
33903;DHT22;20194;50.950;5.346;2022-12-18T11:07:58;-1.00;28.80
33903;DHT22;20194;50.950;5.346;2022-12-18T11:10:37;-0.80;26.30
33903;DHT22;20194;50.950;5.346;2022-12-18T11:13:21;-0.70;24.50
33903;DHT22;20194;50.950;5.346;2022-12-18T11:15:47;-0.60;21.50
33903;DHT22;20194;50.950;5.346;2022-12-18T11:18:30;-0.60;23.50
33903;DHT22;20194;50.950;5.346;2022-12-18T11:21:00;-0.50;21.80
33903;DHT22;20194;50.950;5.346;2022-12-18T11:23:31;-0.40;20.90
33903;DHT22;20194;50.950;5.346;2022-12-18T11:25:59;-0.30;20.70
33903;DHT22;20194;50.950;5.346;2022-12-18T11:31:26;-0.10;19.40
33903;DHT22;20194;50.950;5.346;2022-12-18T11:34:20;0.00;16.50
33903;DHT22;20194;50.950;5.346;2022-12-18T11:36:48;0.10;15.60
33903;DHT22;20194;50.950;5.346;2022-12-18T11:39:36;0.20;17.00
33903;DHT22;20194;50.950;5.346;2022-12-18T11:45:08;0.20;13.50
33903;DHT22;20194;50.950;5.346;2022-12-18T11:47:55;0.30;14.40
33903;DHT22;20194;50.950;5.346;2022-12-18T11:50:26;0.30;11.80
33903;DHT22;20194;50.950;5.346;2022-12-18T11:52:53;0.30;13.30
33903;DHT22;20194;50.950;5.346;2022-12-18T12:20:49;0.70;13.60
33903;DHT22;20194;50.950;5.346;2022-12-18T12:23:30;0.70;13.50
33903;DHT22;20194;50.950;5.346;2022-12-18T12:26:06;0.60;13.10
33903;DHT22;20194;50.950;5.346;2022-12-18T12:29:16;0.70;16.10
33903;DHT22;20194;50.950;5.346;2022-12-18T12:34:18;0.80;11.60
33903;DHT22;20194;50.950;5.346;2022-12-18T12:37:07;0.70;14.70
33903;DHT22;20194;50.950;5.346;2022-12-18T12:39:38;0.70;13.70
33903;DHT22;20194;50.950;5.346;2022-12-18T12:42:13;0.70;14.50
33903;DHT22;20194;50.950;5.346;2022-12-18T12:45:02;0.60;17.40
33903;DHT22;20194;50.950;5.346;2022-12-18T12:47:33;0.70;14.60
33903;DHT22;20194;50.950;5.346;2022-12-18T12:50:04;0.70;14.70
33903;DHT22;20194;50.950;5.346;2022-12-18T12:52:38;0.70;15.00
33903;DHT22;20194;50.950;5.346;2022-12-18T12:55:11;0.70;16.40
33903;DHT22;20194;50.950;5.346;2022-12-18T12:57:40;0.60;16.30
33903;DHT22;20194;50.950;5.346;2022-12-18T13:00:16;0.60;17.30
33903;DHT22;20194;50.950;5.346;2022-12-18T13:02:53;0.70;16.20
33903;DHT22;20194;50.950;5.346;2022-12-18T13:08:12;0.80;15.60
33903;DHT22;20194;50.950;5.346;2022-12-18T13:10:47;0.90;14.30
33903;DHT22;20194;50.950;5.346;2022-12-18T13:13:14;1.10;12.00
33903;DHT22;20194;50.950;5.346;2022-12-18T13:15:46;1.10;11.30
33903;DHT22;20194;50.950;5.346;2022-12-18T13:18:21;1.30;10.30
33903;DHT22;20194;50.950;5.346;2022-12-18T13:21:01;1.30;7.60
33903;DHT22;20194;50.950;5.346;2022-12-18T13:23:31;1.40;7.70
33903;DHT22;20194;50.950;5.346;2022-12-18T13:26:42;1.60;6.20
33903;DHT22;20194;50.950;5.346;2022-12-18T13:33:38;1.40;6.00
33903;DHT22;20194;50.950;5.346;2022-12-18T13:36:25;1.40;7.80
33903;DHT22;20194;50.950;5.346;2022-12-18T13:41:42;1.40;7.80
33903;DHT22;20194;50.950;5.346;2022-12-18T13:44:31;1.50;8.60
33903;DHT22;20194;50.950;5.346;2022-12-18T13:46:59;1.70;5.30
33903;DHT22;20194;50.950;5.346;2022-12-18T13:49:40;1.80;2.90
33903;DHT22;20194;50.950;5.346;2022-12-18T13:52:18;2.00;1.00
33903;DHT22;20194;50.950;5.346;2022-12-18T13:54:49;2.00;2.00
33903;DHT22;20194;50.950;5.346;2022-12-18T13:57:33;2.00;1.00
33903;DHT22;20194;50.950;5.346;2022-12-18T14:02:49;2.00;1.00
33903;DHT22;20194;50.950;5.346;2022-12-18T14:05:32;2.10;1.00
33903;DHT22;20194;50.950;5.346;2022-12-18T14:08:08;2.20;1.00
33903;DHT22;20194;50.950;5.346;2022-12-18T14:10:35;2.20;1.00
33903;DHT22;20194;50.950;5.346;2022-12-18T14:13:07;2.20;1.00
33903;DHT22;20194;50.950;5.346;2022-12-18T14:15:43;2.30;1.00
33903;DHT22;20194;50.950;5.346;2022-12-18T14:20:46;2.00;1.00
33903;DHT22;20194;50.950;5.346;2022-12-18T14:23:39;2.10;1.00
33903;DHT22;20194;50.950;5.346;2022-12-18T14:28:48;2.20;1.00
33903;DHT22;20194;50.950;5.346;2022-12-18T14:31:25;2.30;1.00
33903;DHT22;20194;50.950;5.346;2022-12-18T14:33:51;2.20;1.00
33903;DHT22;20194;50.950;5.346;2022-12-18T14:36:20;2.30;1.00
33903;DHT22;20194;50.950;5.346;2022-12-18T14:38:54;2.30;1.00
33903;DHT22;20194;50.950;5.346;2022-12-18T14:41:21;2.40;1.00
33903;DHT22;20194;50.950;5.346;2022-12-18T14:43:49;2.40;1.00
33903;DHT22;20194;50.950;5.346;2022-12-18T14:46:35;2.40;1.00
33903;DHT22;20194;50.950;5.346;2022-12-18T14:51:30;2.40;1.00
33903;DHT22;20194;50.950;5.346;2022-12-18T14:53:59;2.50;1.00
33903;DHT22;20194;50.950;5.346;2022-12-18T14:56:34;2.50;1.00
33903;DHT22;20194;50.950;5.346;2022-12-18T14:59:01;2.40;1.00
33903;DHT22;20194;50.950;5.346;2022-12-18T15:03:55;2.50;1.00
33903;DHT22;20194;50.950;5.346;2022-12-18T15:06:28;2.50;1.00
33903;DHT22;20194;50.950;5.346;2022-12-18T15:08:54;2.40;1.00
33903;DHT22;20194;50.950;5.346;2022-12-18T15:11:35;2.40;1.00
33903;DHT22;20194;50.950;5.346;2022-12-18T15:14:24;2.50;1.00
33903;DHT22;20194;50.950;5.346;2022-12-18T15:16:51;2.40;1.00
33903;DHT22;20194;50.950;5.346;2022-12-18T15:19:19;2.30;1.00
33903;DHT22;20194;50.950;5.346;2022-12-18T15:21:45;2.30;1.00
33903;DHT22;20194;50.950;5.346;2022-12-18T15:24:22;2.30;1.00
33903;DHT22;20194;50.950;5.346;2022-12-18T15:26:49;2.40;1.00
33903;DHT22;20194;50.950;5.346;2022-12-18T15:29:20;2.40;1.00
33903;DHT22;20194;50.950;5.346;2022-12-18T15:31:59;2.40;1.00
33903;DHT22;20194;50.950;5.346;2022-12-18T15:34:24;2.40;1.00
33903;DHT22;20194;50.950;5.346;2022-12-18T15:36:51;2.50;1.00
33903;DHT22;20194;50.950;5.346;2022-12-18T15:39:17;2.40;1.00
33903;DHT22;20194;50.950;5.346;2022-12-18T15:41:43;2.50;1.00
33903;DHT22;20194;50.950;5.346;2022-12-18T15:44:29;2.50;1.00
33903;DHT22;20194;50.950;5.346;2022-12-18T15:46:55;2.50;1.00
33903;DHT22;20194;50.950;5.346;2022-12-18T15:49:21;2.50;1.00
33903;DHT22;20194;50.950;5.346;2022-12-18T15:51:58;2.50;1.00
33903;DHT22;20194;50.950;5.346;2022-12-18T15:54:24;2.50;1.00
33903;DHT22;20194;50.950;5.346;2022-12-18T15:57:12;2.50;1.00
33903;DHT22;20194;50.950;5.346;2022-12-18T15:59:56;2.50;1.00
33903;DHT22;20194;50.950;5.346;2022-12-18T16:02:23;2.60;1.00
33903;DHT22;20194;50.950;5.346;2022-12-18T16:04:50;2.60;1.00
33903;DHT22;20194;50.950;5.346;2022-12-18T16:07:16;2.60;1.00
33903;DHT22;20194;50.950;5.346;2022-12-18T16:09:42;2.60;1.00
33903;DHT22;20194;50.950;5.346;2022-12-18T16:12:21;2.60;1.00
33903;DHT22;20194;50.950;5.346;2022-12-18T16:14:48;2.60;1.00
33903;DHT22;20194;50.950;5.346;2022-12-18T16:17:14;2.70;1.00
33903;DHT22;20194;50.950;5.346;2022-12-18T16:19:40;2.60;1.00
33903;DHT22;20194;50.950;5.346;2022-12-18T16:22:27;2.60;1.00
33903;DHT22;20194;50.950;5.346;2022-12-18T16:24:54;2.50;1.00
33903;DHT22;20194;50.950;5.346;2022-12-18T16:27:21;2.50;1.00
33903;DHT22;20194;50.950;5.346;2022-12-18T16:29:48;2.60;1.00
33903;DHT22;20194;50.950;5.346;2022-12-18T16:32:16;2.60;1.00
33903;DHT22;20194;50.950;5.346;2022-12-18T16:34:43;2.70;1.00
33903;DHT22;20194;50.950;5.346;2022-12-18T16:37:11;2.60;1.00
33903;DHT22;20194;50.950;5.346;2022-12-18T16:39:38;2.60;1.00
33903;DHT22;20194;50.950;5.346;2022-12-18T16:42:15;2.60;1.00
33903;DHT22;20194;50.950;5.346;2022-12-18T16:44:42;2.60;1.00
33903;DHT22;20194;50.950;5.346;2022-12-18T16:47:08;2.70;1.00
33903;DHT22;20194;50.950;5.346;2022-12-18T16:49:34;2.60;1.00
33903;DHT22;20194;50.950;5.346;2022-12-18T16:52:02;2.70;1.00
33903;DHT22;20194;50.950;5.346;2022-12-18T16:54:28;2.70;1.00
33903;DHT22;20194;50.950;5.346;2022-12-18T16:56:57;2.80;1.00
33903;DHT22;20194;50.950;5.346;2022-12-18T16:59:25;2.80;1.00
33903;DHT22;20194;50.950;5.346;2022-12-18T17:01:51;2.80;1.00
33903;DHT22;20194;50.950;5.346;2022-12-18T17:04:17;2.80;1.00
33903;DHT22;20194;50.950;5.346;2022-12-18T17:06:44;2.90;1.00
33903;DHT22;20194;50.950;5.346;2022-12-18T17:09:16;2.90;1.00
33903;DHT22;20194;50.950;5.346;2022-12-18T17:11:45;2.90;1.00
33903;DHT22;20194;50.950;5.346;2022-12-18T17:14:19;2.90;1.00
33903;DHT22;20194;50.950;5.346;2022-12-18T17:16:45;2.90;1.00
33903;DHT22;20194;50.950;5.346;2022-12-18T17:19:12;3.00;1.00
33903;DHT22;20194;50.950;5.346;2022-12-18T17:21:38;2.90;1.00
33903;DHT22;20194;50.950;5.346;2022-12-18T17:24:04;2.90;1.00
33903;DHT22;20194;50.950;5.346;2022-12-18T17:26:30;2.90;1.00
33903;DHT22;20194;50.950;5.346;2022-12-18T17:28:56;2.90;1.00
33903;DHT22;20194;50.950;5.346;2022-12-18T17:31:26;3.00;1.00
33903;DHT22;20194;50.950;5.346;2022-12-18T17:33:52;2.80;1.00